PWSweather.com
Personal Weather Stations
Station Observations
KVAGLENALL
West Henrico, Glen Allen, VA 23060-6503

West HenricoGlen Allen, VA 23060-6503

Lat: 37.6554, Lon: -77.5693

Elevation: 273

Station Type: Davis Vantage Pro II

www.glenallenweather.com

High Low Average
Temperature 88.6°F31.4°C 73.7°F23.2°C 80.4°F26.9°C
Dew Point 78.4°F25.8°C 72.4°F22.4°C 75.4°F24.1°C
Winds 14.0 mph 22.5 kmh 1.0 mph 1.6 kmh 6.0 mph SSW9.7 kmh SSW
Wind Gusts 19.2 mph30.9 kmh 3.0 mph4.8 kmh 9.0 mph14.5 kmh
Humidity 98% 68% 86%
Pressure 30.11 in1019.6 mb 30.01 in1016.3 mb -
Precipitation 0.00 in0.0 mm - -
Hour Temp Dew Point Humidity Winds Wind Gusts Pressure Precip Precip Rate Daily Precip Total
12:01 AM 76.2°F24.6°C 75.3°F24.1°C 97% 3.0 mph SSW4.8 kmh SSW 4.0 mph6.4 kmh 30.03 in1016.9 mb 0.02 in0.5 mm 1.20 in30.5 mm 0.02 in0.5 mm
12:15 AM 76.1°F24.5°C 75.2°F24.0°C 97% 6.0 mph SW9.7 kmh SW 6.1 mph9.8 kmh 30.02 in1016.6 mb 0.02 in0.5 mm 0.00 in0.0 mm 0.02 in0.5 mm
12:30 AM 75.7°F24.3°C 74.8°F23.8°C 97% 5.0 mph SSW8.0 kmh SSW 11.1 mph17.9 kmh 30.03 in1016.9 mb 0.00 in0.0 mm 0.00 in0.0 mm 0.02 in0.5 mm
12:45 AM 75.6°F24.2°C 74.7°F23.7°C 97% 6.0 mph SW9.7 kmh SW 9.1 mph14.6 kmh 30.04 in1017.3 mb 0.00 in0.0 mm 0.00 in0.0 mm 0.02 in0.5 mm
01:00 AM 75.3°F24.1°C 74.4°F23.6°C 97% 2.0 mph S3.2 kmh S 8.1 mph13.0 kmh 30.04 in1017.3 mb 0.00 in0.0 mm 0.00 in0.0 mm 0.02 in0.5 mm
01:15 AM 75.1°F23.9°C 74.2°F23.4°C 97% 5.0 mph S8.0 kmh S 7.1 mph11.4 kmh 30.03 in1016.9 mb 0.00 in0.0 mm 0.00 in0.0 mm 0.02 in0.5 mm
01:30 AM 74.9°F23.8°C 74.0°F23.3°C 97% 7.0 mph S11.3 kmh S 7.1 mph11.4 kmh 30.02 in1016.6 mb 0.00 in0.0 mm 0.00 in0.0 mm 0.02 in0.5 mm
01:45 AM 74.8°F23.8°C 73.9°F23.3°C 97% 1.0 mph S1.6 kmh S 4.0 mph6.4 kmh 30.01 in1016.3 mb 0.00 in0.0 mm 0.00 in0.0 mm 0.02 in0.5 mm
02:00 AM 74.6°F23.7°C 73.7°F23.2°C 97% 7.0 mph SSW11.3 kmh SSW 10.1 mph16.3 kmh 30.01 in1016.3 mb 0.00 in0.0 mm 0.00 in0.0 mm 0.02 in0.5 mm
02:15 AM 74.7°F23.7°C 74.1°F23.4°C 98% 8.0 mph SSW12.9 kmh SSW 9.1 mph14.6 kmh 30.01 in1016.3 mb 0.00 in0.0 mm 0.00 in0.0 mm 0.02 in0.5 mm
02:30 AM 74.9°F23.8°C 74.0°F23.3°C 97% 8.0 mph SW12.9 kmh SW 8.1 mph13.0 kmh 30.01 in1016.3 mb 0.00 in0.0 mm 0.00 in0.0 mm 0.02 in0.5 mm
02:45 AM 75.0°F23.9°C 74.1°F23.4°C 97% 5.0 mph SW8.0 kmh SW 10.1 mph16.3 kmh 30.01 in1016.3 mb 0.00 in0.0 mm 0.00 in0.0 mm 0.02 in0.5 mm
03:00 AM 75.0°F23.9°C 74.1°F23.4°C 97% 6.0 mph WSW9.7 kmh WSW 8.1 mph13.0 kmh 30.02 in1016.6 mb 0.00 in0.0 mm 0.00 in0.0 mm 0.02 in0.5 mm
03:15 AM 75.0°F23.9°C 74.1°F23.4°C 97% 3.0 mph SW4.8 kmh SW 4.0 mph6.4 kmh 30.02 in1016.6 mb 0.00 in0.0 mm 0.00 in0.0 mm 0.02 in0.5 mm
03:30 AM 74.9°F23.8°C 74.0°F23.3°C 97% 6.0 mph SW9.7 kmh SW 7.1 mph11.4 kmh 30.03 in1016.9 mb 0.00 in0.0 mm 0.00 in0.0 mm 0.02 in0.5 mm
03:45 AM 74.8°F23.8°C 73.9°F23.3°C 97% 5.0 mph SSW8.0 kmh SSW 7.1 mph11.4 kmh 30.03 in1016.9 mb 0.00 in0.0 mm 0.00 in0.0 mm 0.02 in0.5 mm
04:00 AM 74.7°F23.7°C 73.8°F23.2°C 97% 4.0 mph SW6.4 kmh SW 7.1 mph11.4 kmh 30.03 in1016.9 mb 0.00 in0.0 mm 0.00 in0.0 mm 0.02 in0.5 mm
04:15 AM 74.6°F23.7°C 73.7°F23.2°C 97% 3.0 mph SSW4.8 kmh SSW 7.1 mph11.4 kmh 30.04 in1017.3 mb 0.00 in0.0 mm 0.00 in0.0 mm 0.02 in0.5 mm
04:30 AM 74.4°F23.6°C 73.5°F23.1°C 97% 3.0 mph SW4.8 kmh SW 8.1 mph13.0 kmh 30.04 in1017.3 mb 0.00 in0.0 mm 0.00 in0.0 mm 0.02 in0.5 mm
04:45 AM 74.2°F23.4°C 73.0°F22.8°C 96% 4.0 mph SW6.4 kmh SW 6.1 mph9.8 kmh 30.04 in1017.3 mb 0.00 in0.0 mm 0.00 in0.0 mm 0.02 in0.5 mm
05:00 AM 74.0°F23.3°C 73.1°F22.8°C 97% 3.0 mph SSW4.8 kmh SSW 4.0 mph6.4 kmh 30.04 in1017.3 mb 0.00 in0.0 mm 0.00 in0.0 mm 0.02 in0.5 mm
05:15 AM 73.8°F23.2°C 72.9°F22.7°C 97% 6.0 mph S9.7 kmh S 7.1 mph11.4 kmh 30.05 in1017.6 mb 0.00 in0.0 mm 0.00 in0.0 mm 0.02 in0.5 mm
05:30 AM 73.7°F23.2°C 72.8°F22.7°C 97% 5.0 mph S8.0 kmh S 5.1 mph8.2 kmh 30.05 in1017.6 mb 0.00 in0.0 mm 0.00 in0.0 mm 0.02 in0.5 mm
05:45 AM 73.7°F23.2°C 72.8°F22.7°C 97% 2.0 mph SSW3.2 kmh SSW 4.0 mph6.4 kmh 30.05 in1017.6 mb 0.00 in0.0 mm 0.00 in0.0 mm 0.02 in0.5 mm
06:00 AM 73.9°F23.3°C 73.0°F22.8°C 97% 3.0 mph SSW4.8 kmh SSW 3.0 mph4.8 kmh 30.05 in1017.6 mb 0.00 in0.0 mm 0.00 in0.0 mm 0.02 in0.5 mm
06:15 AM 74.2°F23.4°C 73.6°F23.1°C 98% 1.0 mph SW1.6 kmh SW 8.1 mph13.0 kmh 30.06 in1017.9 mb 0.00 in0.0 mm 0.00 in0.0 mm 0.02 in0.5 mm
06:30 AM 74.4°F23.6°C 73.5°F23.1°C 97% 2.0 mph S3.2 kmh S 6.1 mph9.8 kmh 30.06 in1017.9 mb 0.00 in0.0 mm 0.00 in0.0 mm 0.02 in0.5 mm
06:45 AM 74.8°F23.8°C 73.9°F23.3°C 97% 1.0 mph S1.6 kmh S 6.1 mph9.8 kmh 30.06 in1017.9 mb 0.00 in0.0 mm 0.00 in0.0 mm 0.02 in0.5 mm
07:00 AM 75.2°F24.0°C 74.3°F23.5°C 97% 3.0 mph SSW4.8 kmh SSW 5.1 mph8.2 kmh 30.06 in1017.9 mb 0.00 in0.0 mm 0.00 in0.0 mm 0.02 in0.5 mm
07:15 AM 75.9°F24.4°C 74.7°F23.7°C 96% 4.0 mph SW6.4 kmh SW 8.1 mph13.0 kmh 30.06 in1017.9 mb 0.00 in0.0 mm 0.00 in0.0 mm 0.02 in0.5 mm
07:30 AM 76.3°F24.6°C 74.8°F23.8°C 95% 4.0 mph S6.4 kmh S 7.1 mph11.4 kmh 30.07 in1018.3 mb 0.00 in0.0 mm 0.00 in0.0 mm 0.02 in0.5 mm
07:45 AM 77.5°F25.3°C 75.3°F24.1°C 93% 6.0 mph SW9.7 kmh SW 10.1 mph16.3 kmh 30.07 in1018.3 mb 0.00 in0.0 mm 0.00 in0.0 mm 0.02 in0.5 mm
08:00 AM 77.4°F25.2°C 74.9°F23.8°C 92% 9.0 mph SSW14.5 kmh SSW 9.1 mph14.6 kmh 30.07 in1018.3 mb 0.00 in0.0 mm 0.00 in0.0 mm 0.02 in0.5 mm
08:15 AM 78.2°F25.7°C 75.4°F24.1°C 91% 7.0 mph SSW11.3 kmh SSW 12.1 mph19.5 kmh 30.07 in1018.3 mb 0.00 in0.0 mm 0.00 in0.0 mm 0.02 in0.5 mm
08:30 AM 79.1°F26.2°C 75.6°F24.2°C 89% 13.0 mph S20.9 kmh S 13.1 mph21.1 kmh 30.07 in1018.3 mb 0.00 in0.0 mm 0.00 in0.0 mm 0.02 in0.5 mm
08:45 AM 80.4°F26.9°C 76.2°F24.6°C 87% 6.0 mph SW9.7 kmh SW 9.1 mph14.6 kmh 30.07 in1018.3 mb 0.00 in0.0 mm 0.00 in0.0 mm 0.02 in0.5 mm
09:00 AM 81.5°F27.5°C 75.9°F24.4°C 83% 12.0 mph SSW19.3 kmh SSW 14.1 mph22.7 kmh 30.07 in1018.3 mb 0.00 in0.0 mm 0.00 in0.0 mm 0.02 in0.5 mm
09:15 AM 80.0°F26.7°C 75.1°F23.9°C 85% 9.0 mph SW14.5 kmh SW 13.1 mph21.1 kmh 30.08 in1018.6 mb 0.00 in0.0 mm 0.00 in0.0 mm 0.02 in0.5 mm
09:30 AM 79.2°F26.2°C 75.0°F23.9°C 87% 5.0 mph SW8.0 kmh SW 8.1 mph13.0 kmh 30.08 in1018.6 mb 0.00 in0.0 mm 0.00 in0.0 mm 0.02 in0.5 mm
09:45 AM 79.8°F26.6°C 75.2°F24.0°C 86% 6.0 mph W9.7 kmh W 14.1 mph22.7 kmh 30.08 in1018.6 mb 0.00 in0.0 mm 0.00 in0.0 mm 0.02 in0.5 mm
10:00 AM 80.5°F26.9°C 75.6°F24.2°C 85% 7.0 mph S11.3 kmh S 8.1 mph13.0 kmh 30.08 in1018.6 mb 0.00 in0.0 mm 0.00 in0.0 mm 0.02 in0.5 mm
10:15 AM 80.5°F26.9°C 75.6°F24.2°C 85% 5.0 mph SW8.0 kmh SW 13.1 mph21.1 kmh 30.08 in1018.6 mb 0.00 in0.0 mm 0.00 in0.0 mm 0.02 in0.5 mm
10:30 AM 81.6°F27.6°C 76.3°F24.6°C 84% 11.0 mph SSW17.7 kmh SSW 16.2 mph26.1 kmh 30.08 in1018.6 mb 0.00 in0.0 mm 0.00 in0.0 mm 0.02 in0.5 mm
10:45 AM 83.6°F28.7°C 76.8°F24.9°C 80% 6.0 mph SSW9.7 kmh SSW 11.1 mph17.9 kmh 30.08 in1018.6 mb 0.00 in0.0 mm 0.00 in0.0 mm 0.02 in0.5 mm
11:00 AM 83.1°F28.4°C 76.3°F24.6°C 80% 9.0 mph SSW14.5 kmh SSW 11.1 mph17.9 kmh 30.08 in1018.6 mb 0.00 in0.0 mm 0.00 in0.0 mm 0.02 in0.5 mm
11:15 AM 82.3°F27.9°C 75.9°F24.4°C 81% 7.0 mph SW11.3 kmh SW 9.1 mph14.6 kmh 30.08 in1018.6 mb 0.00 in0.0 mm 0.00 in0.0 mm 0.02 in0.5 mm
11:30 AM 84.0°F28.9°C 76.4°F24.7°C 78% 9.0 mph SSW14.5 kmh SSW 10.1 mph16.3 kmh 30.08 in1018.6 mb 0.00 in0.0 mm 0.00 in0.0 mm 0.02 in0.5 mm
11:45 AM 83.7°F28.7°C 76.1°F24.5°C 78% 3.0 mph SW4.8 kmh SW 10.1 mph16.3 kmh 30.07 in1018.3 mb 0.00 in0.0 mm 0.00 in0.0 mm 0.02 in0.5 mm
12:00 PM 84.3°F29.1°C 76.3°F24.6°C 77% 8.0 mph SSW12.9 kmh SSW 12.1 mph19.5 kmh 30.07 in1018.3 mb 0.00 in0.0 mm 0.00 in0.0 mm 0.02 in0.5 mm
12:15 PM 85.7°F29.8°C 76.9°F24.9°C 75% 14.0 mph S22.5 kmh S 16.2 mph26.1 kmh 30.06 in1017.9 mb 0.00 in0.0 mm 0.00 in0.0 mm 0.02 in0.5 mm
12:30 PM 86.0°F30.0°C 77.6°F25.3°C 76% 7.0 mph SW11.3 kmh SW 9.1 mph14.6 kmh 30.07 in1018.3 mb 0.00 in0.0 mm 0.00 in0.0 mm 0.02 in0.5 mm
12:45 PM 86.3°F30.2°C 76.7°F24.8°C 73% 5.0 mph SW8.0 kmh SW 13.1 mph21.1 kmh 30.06 in1017.9 mb 0.00 in0.0 mm 0.00 in0.0 mm 0.02 in0.5 mm
01:00 PM 85.3°F29.6°C 77.3°F25.2°C 77% 9.0 mph SSW14.5 kmh SSW 13.1 mph21.1 kmh 30.05 in1017.6 mb 0.00 in0.0 mm 0.00 in0.0 mm 0.02 in0.5 mm
01:15 PM 86.2°F30.1°C 77.4°F25.2°C 75% 6.0 mph S9.7 kmh S 9.1 mph14.6 kmh 30.05 in1017.6 mb 0.00 in0.0 mm 0.00 in0.0 mm 0.02 in0.5 mm
01:30 PM 86.3°F30.2°C 76.7°F24.8°C 73% 9.0 mph SSW14.5 kmh SSW 12.1 mph19.5 kmh 30.05 in1017.6 mb 0.00 in0.0 mm 0.00 in0.0 mm 0.02 in0.5 mm
01:45 PM 86.7°F30.4°C 76.6°F24.8°C 72% 7.0 mph SW11.3 kmh SW 11.1 mph17.9 kmh 30.04 in1017.3 mb 0.00 in0.0 mm 0.00 in0.0 mm 0.02 in0.5 mm
02:00 PM 87.2°F30.7°C 77.9°F25.5°C 74% 5.0 mph S8.0 kmh S 8.1 mph13.0 kmh 30.04 in1017.3 mb 0.00 in0.0 mm 0.00 in0.0 mm 0.02 in0.5 mm
02:15 PM 86.8°F30.4°C 78.0°F25.6°C 75% 3.0 mph WSW4.8 kmh WSW 10.1 mph16.3 kmh 30.04 in1017.3 mb 0.00 in0.0 mm 0.00 in0.0 mm 0.02 in0.5 mm
02:30 PM 87.9°F31.1°C 77.4°F25.2°C 71% 2.0 mph SSW3.2 kmh SSW 11.1 mph17.9 kmh 30.03 in1016.9 mb 0.00 in0.0 mm 0.00 in0.0 mm 0.02 in0.5 mm
02:45 PM 87.7°F30.9°C 77.2°F25.1°C 71% 8.0 mph S12.9 kmh S 17.2 mph27.7 kmh 30.04 in1017.3 mb 0.00 in0.0 mm 0.00 in0.0 mm 0.02 in0.5 mm
03:00 PM 87.6°F30.9°C 77.1°F25.1°C 71% 6.0 mph S9.7 kmh S 8.1 mph13.0 kmh 30.03 in1016.9 mb 0.00 in0.0 mm 0.00 in0.0 mm 0.02 in0.5 mm
03:15 PM 88.0°F31.1°C 77.5°F25.3°C 71% 8.0 mph SSW12.9 kmh SSW 8.1 mph13.0 kmh 30.03 in1016.9 mb 0.00 in0.0 mm 0.00 in0.0 mm 0.02 in0.5 mm
03:30 PM 86.2°F30.1°C 76.6°F24.8°C 73% 4.0 mph S6.4 kmh S 10.1 mph16.3 kmh 30.02 in1016.6 mb 0.00 in0.0 mm 0.00 in0.0 mm 0.02 in0.5 mm
03:45 PM 87.6°F30.9°C 77.1°F25.1°C 71% 8.0 mph SSW12.9 kmh SSW 10.1 mph16.3 kmh 30.03 in1016.9 mb 0.00 in0.0 mm 0.00 in0.0 mm 0.02 in0.5 mm
04:00 PM 88.4°F31.3°C 78.3°F25.7°C 72% 4.0 mph S6.4 kmh S 5.1 mph8.2 kmh 30.03 in1016.9 mb 0.00 in0.0 mm 0.00 in0.0 mm 0.02 in0.5 mm
04:15 PM 88.5°F31.4°C 78.4°F25.8°C 72% 3.0 mph S4.8 kmh S 6.1 mph9.8 kmh 30.03 in1016.9 mb 0.00 in0.0 mm 0.00 in0.0 mm 0.02 in0.5 mm
04:30 PM 88.4°F31.3°C 77.0°F25.0°C 69% 8.0 mph SW12.9 kmh SW 11.1 mph17.9 kmh 30.04 in1017.3 mb 0.00 in0.0 mm 0.00 in0.0 mm 0.02 in0.5 mm
04:45 PM 87.9°F31.1°C 76.1°F24.5°C 68% 6.0 mph SW9.7 kmh SW 11.1 mph17.9 kmh 30.04 in1017.3 mb 0.00 in0.0 mm 0.00 in0.0 mm 0.02 in0.5 mm
05:00 PM 88.6°F31.4°C 78.0°F25.6°C 71% 8.0 mph SSW12.9 kmh SSW 9.1 mph14.6 kmh 30.03 in1016.9 mb 0.00 in0.0 mm 0.00 in0.0 mm 0.02 in0.5 mm
05:15 PM 87.8°F31.0°C 76.8°F24.9°C 70% 7.0 mph S11.3 kmh S 9.1 mph14.6 kmh 30.02 in1016.6 mb 0.00 in0.0 mm 0.00 in0.0 mm 0.02 in0.5 mm
05:30 PM 87.3°F30.7°C 76.4°F24.7°C 70% 4.0 mph SSW6.4 kmh SSW 10.1 mph16.3 kmh 30.01 in1016.3 mb 0.00 in0.0 mm 0.00 in0.0 mm 0.02 in0.5 mm
05:45 PM 87.1°F30.6°C 76.2°F24.6°C 70% 2.0 mph S3.2 kmh S 9.1 mph14.6 kmh 30.01 in1016.3 mb 0.00 in0.0 mm 0.00 in0.0 mm 0.02 in0.5 mm
06:00 PM 86.8°F30.4°C 76.3°F24.6°C 71% 5.0 mph S8.0 kmh S 14.1 mph22.7 kmh 30.02 in1016.6 mb 0.00 in0.0 mm 0.00 in0.0 mm 0.02 in0.5 mm
06:15 PM 86.4°F30.2°C 77.6°F25.3°C 75% 12.0 mph S19.3 kmh S 19.2 mph30.9 kmh 30.03 in1016.9 mb 0.00 in0.0 mm 0.00 in0.0 mm 0.02 in0.5 mm
06:30 PM 84.7°F29.3°C 77.5°F25.3°C 79% 13.0 mph SSW20.9 kmh SSW 13.1 mph21.1 kmh 30.03 in1016.9 mb 0.00 in0.0 mm 0.00 in0.0 mm 0.02 in0.5 mm
06:45 PM 83.5°F28.6°C 77.4°F25.2°C 82% 5.0 mph SSE8.0 kmh SSE 13.1 mph21.1 kmh 30.04 in1017.3 mb 0.00 in0.0 mm 0.00 in0.0 mm 0.02 in0.5 mm
07:00 PM 82.7°F28.2°C 76.3°F24.6°C 81% 10.0 mph S16.1 kmh S 17.2 mph27.7 kmh 30.03 in1016.9 mb 0.00 in0.0 mm 0.00 in0.0 mm 0.02 in0.5 mm
07:15 PM 82.0°F27.8°C 76.0°F24.4°C 82% 2.0 mph SSE3.2 kmh SSE 7.1 mph11.4 kmh 30.04 in1017.3 mb 0.00 in0.0 mm 0.00 in0.0 mm 0.02 in0.5 mm
07:30 PM 81.3°F27.4°C 75.7°F24.3°C 83% 5.0 mph SSE8.0 kmh SSE 5.1 mph8.2 kmh 30.05 in1017.6 mb 0.00 in0.0 mm 0.00 in0.0 mm 0.02 in0.5 mm
07:45 PM 81.1°F27.3°C 75.5°F24.2°C 83% 8.0 mph SSE12.9 kmh SSE 10.1 mph16.3 kmh 30.06 in1017.9 mb 0.00 in0.0 mm 0.00 in0.0 mm 0.02 in0.5 mm
08:00 PM 80.8°F27.1°C 75.2°F24.0°C 83% 4.0 mph S6.4 kmh S 8.1 mph13.0 kmh 30.07 in1018.3 mb 0.00 in0.0 mm 0.00 in0.0 mm 0.02 in0.5 mm
08:15 PM 80.4°F26.9°C 75.1°F23.9°C 84% 9.0 mph SSW14.5 kmh SSW 9.1 mph14.6 kmh 30.08 in1018.6 mb 0.00 in0.0 mm 0.00 in0.0 mm 0.02 in0.5 mm
08:30 PM 80.0°F26.7°C 75.1°F23.9°C 85% 8.0 mph SW12.9 kmh SW 11.1 mph17.9 kmh 30.08 in1018.6 mb 0.00 in0.0 mm 0.00 in0.0 mm 0.02 in0.5 mm
08:45 PM 79.8°F26.6°C 75.2°F24.0°C 86% 7.0 mph SW11.3 kmh SW 10.1 mph16.3 kmh 30.08 in1018.6 mb 0.00 in0.0 mm 0.00 in0.0 mm 0.02 in0.5 mm
09:00 PM 79.5°F26.4°C 75.3°F24.1°C 87% 5.0 mph S8.0 kmh S 10.1 mph16.3 kmh 30.08 in1018.6 mb 0.00 in0.0 mm 0.00 in0.0 mm 0.02 in0.5 mm
09:15 PM 79.4°F26.3°C 75.2°F24.0°C 87% 7.0 mph S11.3 kmh S 8.1 mph13.0 kmh 30.09 in1019.0 mb 0.00 in0.0 mm 0.00 in0.0 mm 0.02 in0.5 mm
09:30 PM 79.1°F26.2°C 74.9°F23.8°C 87% 6.0 mph S9.7 kmh S 9.1 mph14.6 kmh 30.09 in1019.0 mb 0.00 in0.0 mm 0.00 in0.0 mm 0.02 in0.5 mm
09:45 PM 78.9°F26.1°C 75.0°F23.9°C 88% 6.0 mph S9.7 kmh S 8.1 mph13.0 kmh 30.10 in1019.3 mb 0.00 in0.0 mm 0.00 in0.0 mm 0.02 in0.5 mm
10:00 PM 78.9°F26.1°C 75.4°F24.1°C 89% 5.0 mph SW8.0 kmh SW 9.1 mph14.6 kmh 30.10 in1019.3 mb 0.00 in0.0 mm 0.00 in0.0 mm 0.02 in0.5 mm
10:15 PM 78.7°F25.9°C 75.2°F24.0°C 89% 2.0 mph SSW3.2 kmh SSW 6.1 mph9.8 kmh 30.10 in1019.3 mb 0.00 in0.0 mm 0.00 in0.0 mm 0.02 in0.5 mm
10:30 PM 78.5°F25.8°C 75.3°F24.1°C 90% 6.0 mph SSW9.7 kmh SSW 8.1 mph13.0 kmh 30.10 in1019.3 mb 0.00 in0.0 mm 0.00 in0.0 mm 0.02 in0.5 mm
10:45 PM 78.5°F25.8°C 75.3°F24.1°C 90% 9.0 mph SSW14.5 kmh SSW 11.1 mph17.9 kmh 30.11 in1019.6 mb 0.00 in0.0 mm 0.00 in0.0 mm 0.02 in0.5 mm
11:00 PM 78.5°F25.8°C 75.3°F24.1°C 90% 3.0 mph SW4.8 kmh SW 9.1 mph14.6 kmh 30.11 in1019.6 mb 0.00 in0.0 mm 0.00 in0.0 mm 0.02 in0.5 mm
11:15 PM 78.5°F25.8°C 75.3°F24.1°C 90% 7.0 mph SW11.3 kmh SW 7.1 mph11.4 kmh 30.11 in1019.6 mb 0.00 in0.0 mm 0.00 in0.0 mm 0.02 in0.5 mm
11:30 PM 77.9°F25.5°C 74.4°F23.6°C 89% 1.0 mph WSW1.6 kmh WSW 5.1 mph8.2 kmh 30.11 in1019.6 mb 0.00 in0.0 mm 0.00 in0.0 mm 0.02 in0.5 mm
11:45 PM 76.9°F24.9°C 72.4°F22.4°C 86% 3.0 mph SW4.8 kmh SW 7.1 mph11.4 kmh 30.11 in1019.6 mb 0.00 in0.0 mm 0.00 in0.0 mm 0.02 in0.5 mm